Time;durP1;ratioP1;P1;durP2;ratioP2;P2;SDS_P1;SDS_P2;PMS_P1;PMS_P2;Temp;Humidity;BMP_temperature;BMP_pressure;BME280_temperature;BME280_humidity;BME280_pressure;Samples;Min_cycle;Max_cycle;Signal;HPM_P1;HPM_P2
2023/10/05 00:01:27;;;;;;;2.70;1.50;;;9.00;99.90;;;;;;5066607;28;20694;-84
2023/10/05 00:03:54;;;;;;;3.50;1.63;;;9.00;99.90;;;;;;5063413;28;20629;-85
2023/10/05 00:06:27;;;;;;;2.00;1.90;;;9.00;99.90;;;;;;5066004;28;21880;-85
2023/10/05 00:08:56;;;;;;;2.57;1.73;;;9.10;99.90;;;;;;5066272;28;20702;-84
2023/10/05 00:11:24;;;;;;;1.60;1.50;;;9.10;99.90;;;;;;5065266;28;20629;-83
2023/10/05 00:13:53;;;;;;;2.00;1.90;;;9.20;99.90;;;;;;5066127;28;20630;-84
2023/10/05 00:16:21;;;;;;;1.60;1.30;;;9.10;99.90;;;;;;5063014;28;20618;-85
2023/10/05 00:18:50;;;;;;;2.77;1.70;;;9.10;99.90;;;;;;5067158;28;20625;-85
2023/10/05 00:21:19;;;;;;;1.60;1.30;;;9.10;99.90;;;;;;5066921;28;20631;-85
2023/10/05 00:23:57;;;;;;;1.70;1.20;;;9.10;99.90;;;;;;5066236;28;21177;-85
2023/10/05 00:26:28;;;;;;;1.23;1.13;;;9.10;99.90;;;;;;5066862;28;21262;-85
2023/10/05 00:29:04;;;;;;;1.80;1.70;;;9.10;99.90;;;;;;5067670;28;20997;-85
2023/10/05 00:31:33;;;;;;;2.43;2.23;;;9.10;99.90;;;;;;5067131;28;20628;-85
2023/10/05 00:34:02;;;;;;;3.00;2.17;;;9.10;99.90;;;;;;5066570;28;20668;-84
2023/10/05 00:36:35;;;;;;;2.63;1.37;;;9.00;99.90;;;;;;5061972;28;21440;-84
2023/10/05 00:39:07;;;;;;;1.50;1.40;;;9.00;99.90;;;;;;5066346;28;20626;-85
2023/10/05 00:41:34;;;;;;;2.33;1.87;;;9.00;99.90;;;;;;5065228;28;20629;-85
2023/10/05 00:44:01;;;;;;;2.20;1.40;;;9.00;99.90;;;;;;5065962;28;21169;-85
2023/10/05 00:46:31;;;;;;;3.73;1.30;;;9.00;99.90;;;;;;5066579;28;20621;-85
2023/10/05 00:49:03;;;;;;;6.60;1.43;;;9.10;99.90;;;;;;5065709;28;21002;-84
2023/10/05 00:51:35;;;;;;;3.50;1.77;;;9.10;99.90;;;;;;5065962;28;20626;-85
2023/10/05 00:54:10;;;;;;;1.90;1.70;;;9.10;99.90;;;;;;5067630;28;20657;-84
2023/10/05 00:56:40;;;;;;;4.57;2.63;;;9.00;99.90;;;;;;5068564;28;20637;-84
2023/10/05 00:59:11;;;;;;;2.07;1.90;;;9.10;99.90;;;;;;5066906;28;21384;-84
2023/10/05 01:02:01;;;;;;;1.97;1.73;;;9.10;99.90;;;;;;5065768;28;20740;-85
2023/10/05 01:04:34;;;;;;;1.70;1.60;;;9.20;99.90;;;;;;5067604;28;20795;-85
2023/10/05 01:07:18;;;;;;;1.43;1.33;;;9.20;99.90;;;;;;5066073;28;20621;-84
2023/10/05 01:10:21;;;;;;;2.47;1.83;;;9.20;99.90;;;;;;5066009;28;20671;-85
2023/10/05 01:12:45;;;;;;;1.07;1.07;;;9.30;99.90;;;;;;5073074;28;20716;-84
2023/10/05 01:15:19;;;;;;;2.17;1.47;;;9.20;99.90;;;;;;5070835;28;20625;-85
2023/10/05 01:17:50;;;;;;;2.43;1.27;;;9.20;99.90;;;;;;5070533;28;20811;-85
2023/10/05 01:20:25;;;;;;;3.80;1.70;;;9.30;99.90;;;;;;5069169;28;21094;-85
2023/10/05 01:22:57;;;;;;;1.63;1.17;;;9.30;99.90;;;;;;5068642;28;21071;-85
2023/10/05 01:25:27;;;;;;;1.67;1.57;;;9.20;99.90;;;;;;5068634;28;21764;-84
2023/10/05 01:27:55;;;;;;;1.50;1.40;;;9.20;99.90;;;;;;5069669;28;20633;-85
2023/10/05 01:30:23;;;;;;;3.07;1.50;;;9.30;99.90;;;;;;5069321;28;20682;-84
2023/10/05 01:32:51;;;;;;;1.10;1.00;;;9.20;99.90;;;;;;5069749;28;20674;-85
2023/10/05 01:35:19;;;;;;;1.60;1.50;;;9.20;99.90;;;;;;5069481;28;20628;-84
2023/10/05 01:37:51;;;;;;;2.70;1.50;;;9.10;99.90;;;;;;5069816;28;20709;-87
2023/10/05 01:40:25;;;;;;;1.90;1.70;;;9.00;99.90;;;;;;5070104;28;21190;-84
2023/10/05 01:42:54;;;;;;;2.03;1.20;;;9.10;99.90;;;;;;5070604;28;20679;-84
2023/10/05 01:45:29;;;;;;;2.03;1.60;;;9.20;99.90;;;;;;5069015;28;21277;-85
2023/10/05 01:48:01;;;;;;;1.57;1.47;;;9.30;99.90;;;;;;5069583;28;20620;-84
2023/10/05 01:50:28;;;;;;;1.50;1.20;;;9.20;99.90;;;;;;5069305;28;21184;-84
2023/10/05 01:53:06;;;;;;;3.07;1.20;;;9.20;99.90;;;;;;5069861;28;21115;-84
2023/10/05 01:55:35;;;;;;;1.67;1.40;;;9.30;99.90;;;;;;5069063;28;20633;-84
2023/10/05 01:58:04;;;;;;;2.70;1.53;;;9.30;99.90;;;;;;5069208;28;20709;-84
2023/10/05 02:00:32;;;;;;;1.40;1.27;;;9.30;99.90;;;;;;5069083;28;20621;-84
2023/10/05 02:03:00;;;;;;;2.37;1.73;;;9.40;99.90;;;;;;5067620;28;20713;-83
2023/10/05 02:05:30;;;;;;;2.13;1.60;;;9.30;99.90;;;;;;5068752;28;20783;-85
2023/10/05 02:07:58;;;;;;;2.43;1.97;;;9.40;99.90;;;;;;5066810;28;20630;-85
2023/10/05 02:10:26;;;;;;;2.23;1.50;;;9.30;99.90;;;;;;5069299;28;21181;-85
2023/10/05 02:12:54;;;;;;;3.10;1.67;;;9.20;99.90;;;;;;5069361;28;20990;-84
2023/10/05 02:15:28;;;;;;;2.60;1.60;;;9.00;99.90;;;;;;5068740;28;20995;-85
2023/10/05 02:17:58;;;;;;;1.73;1.63;;;9.00;99.90;;;;;;5068947;28;20657;-85
2023/10/05 02:20:44;;;;;;;1.43;1.33;;;9.00;99.90;;;;;;5068592;28;20621;-83
2023/10/05 02:23:28;;;;;;;1.80;1.70;;;9.00;99.90;;;;;;5068063;28;21066;-85
2023/10/05 02:25:57;;;;;;;1.90;1.67;;;9.10;99.90;;;;;;5066507;28;20675;-84
2023/10/05 02:28:26;;;;;;;2.73;1.80;;;9.10;99.90;;;;;;5068962;28;21055;-84
2023/10/05 02:30:59;;;;;;;1.40;1.30;;;9.00;99.90;;;;;;5068220;28;20628;-83
2023/10/05 02:33:31;;;;;;;3.73;2.10;;;9.00;99.90;;;;;;5068103;28;21032;-85
2023/10/05 02:36:10;;;;;;;2.13;1.93;;;9.00;99.90;;;;;;5068553;28;20629;-84
2023/10/05 02:38:38;;;;;;;1.57;1.30;;;8.90;99.90;;;;;;5069510;28;21193;-84
2023/10/05 02:41:08;;;;;;;1.90;1.80;;;8.90;99.90;;;;;;5068736;28;21351;-83
2023/10/05 02:43:41;;;;;;;3.60;2.50;;;8.90;99.90;;;;;;5068232;28;20747;-85
2023/10/05 02:46:11;;;;;;;1.97;1.63;;;8.90;99.90;;;;;;5067477;28;20633;-84
2023/10/05 02:48:41;;;;;;;1.50;1.40;;;8.90;99.90;;;;;;5067950;28;21243;-85
2023/10/05 02:51:10;;;;;;;1.50;1.37;;;8.80;99.90;;;;;;5068684;28;20638;-84
2023/10/05 02:53:41;;;;;;;1.83;1.70;;;8.80;99.90;;;;;;5068622;28;21084;-84
2023/10/05 02:56:20;;;;;;;2.50;2.00;;;8.90;99.90;;;;;;5067663;28;20629;-86
2023/10/05 02:58:50;;;;;;;2.13;1.47;;;8.80;99.90;;;;;;5067792;28;20630;-85
2023/10/05 03:01:19;;;;;;;2.87;1.80;;;8.70;99.90;;;;;;5069031;28;21266;-85
2023/10/05 03:03:46;;;;;;;3.70;2.43;;;8.80;99.90;;;;;;5068526;28;20621;-85
2023/10/05 03:06:12;;;;;;;4.53;1.20;;;8.80;99.90;;;;;;5067894;28;20618;-85
2023/10/05 03:08:39;;;;;;;1.50;1.33;;;8.90;99.90;;;;;;5067079;28;20719;-85
2023/10/05 03:11:08;;;;;;;7.07;1.53;;;8.90;99.90;;;;;;5067911;28;21345;-84
2023/10/05 03:13:37;;;;;;;4.43;1.90;;;8.90;99.90;;;;;;5068457;28;21378;-85
2023/10/05 03:16:07;;;;;;;1.60;1.50;;;9.00;99.90;;;;;;5067596;28;21175;-85
2023/10/05 03:18:37;;;;;;;4.17;1.90;;;9.00;99.90;;;;;;5067815;28;20734;-85
2023/10/05 03:21:11;;;;;;;6.53;2.33;;;9.00;99.90;;;;;;5067634;28;20708;-84
2023/10/05 03:23:40;;;;;;;1.17;1.00;;;9.10;99.90;;;;;;5068221;28;20708;-85
2023/10/05 03:26:08;;;;;;;1.57;1.30;;;9.00;99.90;;;;;;5067330;28;20622;-84
2023/10/05 03:28:36;;;;;;;2.63;2.23;;;8.90;99.90;;;;;;5068018;28;20626;-85
2023/10/05 03:31:07;;;;;;;1.60;1.10;;;8.90;99.90;;;;;;5067822;28;20724;-84
2023/10/05 03:33:36;;;;;;;3.40;1.87;;;8.90;99.90;;;;;;5066508;28;21183;-85
2023/10/05 03:36:06;;;;;;;2.53;1.83;;;9.00;99.90;;;;;;5066740;28;20622;-85
2023/10/05 03:38:35;;;;;;;2.73;1.47;;;8.90;99.90;;;;;;5067758;28;20993;-85
2023/10/05 03:41:04;;;;;;;5.00;2.37;;;8.90;99.90;;;;;;5067403;28;20950;-85
2023/10/05 03:43:32;;;;;;;3.83;2.30;;;8.90;99.90;;;;;;5067489;28;21256;-84
2023/10/05 03:46:08;;;;;;;2.43;2.23;;;9.00;99.90;;;;;;5066680;28;20633;-84
2023/10/05 03:48:38;;;;;;;3.73;2.10;;;9.00;99.90;;;;;;5067298;28;21196;-85
2023/10/05 03:51:19;;;;;;;2.40;1.90;;;9.10;99.90;;;;;;5067122;28;20784;-84
2023/10/05 03:53:50;;;;;;;1.00;0.93;;;9.00;99.90;;;;;;5066614;28;20774;-85
2023/10/05 03:56:19;;;;;;;2.70;1.57;;;9.00;99.90;;;;;;5065745;28;21040;-83
2023/10/05 03:58:47;;;;;;;3.20;1.83;;;9.10;99.90;;;;;;5067368;28;21581;-84
2023/10/05 04:01:14;;;;;;;1.97;1.70;;;9.20;99.90;;;;;;5067861;28;20636;-85
2023/10/05 04:03:44;;;;;;;1.60;1.50;;;9.30;99.90;;;;;;5066876;28;20676;-84
2023/10/05 04:06:17;;;;;;;7.43;2.00;;;9.30;99.90;;;;;;5066174;28;20606;-84
2023/10/05 04:08:49;;;;;;;2.27;1.73;;;9.30;99.90;;;;;;5066538;28;20622;-85
2023/10/05 04:11:18;;;;;;;1.73;1.57;;;9.20;99.90;;;;;;5067275;28;20794;-84
2023/10/05 04:13:46;;;;;;;3.10;2.37;;;9.20;99.90;;;;;;5067144;28;20691;-85
2023/10/05 04:16:21;;;;;;;2.73;1.70;;;9.20;99.90;;;;;;5066241;28;20717;-85
2023/10/05 04:18:51;;;;;;;3.93;2.10;;;9.10;99.90;;;;;;5066960;28;20625;-85
2023/10/05 04:21:19;;;;;;;1.57;1.47;;;9.10;99.90;;;;;;5066601;28;20626;-84
2023/10/05 04:23:49;;;;;;;2.07;1.87;;;9.10;99.90;;;;;;5067689;28;20622;-85
2023/10/05 04:26:18;;;;;;;2.10;1.90;;;9.00;99.90;;;;;;5066412;28;20734;-86
2023/10/05 04:28:52;;;;;;;2.53;2.33;;;8.90;99.90;;;;;;5067457;28;20629;-85
2023/10/05 04:31:22;;;;;;;2.93;1.97;;;9.00;99.90;;;;;;5066849;28;20629;-86
2023/10/05 04:33:51;;;;;;;2.20;1.97;;;9.00;99.90;;;;;;5066537;28;20625;-86
2023/10/05 04:36:19;;;;;;;2.00;1.70;;;9.10;99.90;;;;;;5066576;28;20640;-85
2023/10/05 04:38:47;;;;;;;2.03;1.83;;;9.20;99.90;;;;;;5067479;28;20632;-85
2023/10/05 04:41:14;;;;;;;2.30;1.13;;;9.10;99.90;;;;;;5066942;28;20684;-84
2023/10/05 04:43:41;;;;;;;4.00;1.60;;;9.20;99.90;;;;;;5067105;28;20623;-84
2023/10/05 04:46:09;;;;;;;4.53;1.77;;;9.10;99.90;;;;;;5068344;28;20683;-84
2023/10/05 04:48:37;;;;;;;3.33;1.87;;;9.10;99.90;;;;;;5070680;28;20628;-84
2023/10/05 04:51:06;;;;;;;2.20;2.00;;;9.10;99.90;;;;;;5069776;28;20662;-85
2023/10/05 04:53:35;;;;;;;2.77;2.00;;;9.10;99.90;;;;;;5070148;28;20652;-83
2023/10/05 04:56:27;;;;;;;1.30;1.30;;;9.10;99.90;;;;;;5070585;28;20621;-82
2023/10/05 04:59:18;;;;;;;1.70;1.53;;;9.20;99.90;;;;;;5070414;28;20618;-82
2023/10/05 05:01:56;;;;;;;2.33;1.80;;;9.20;99.90;;;;;;5067862;28;21201;-79
2023/10/05 05:04:40;;;;;;;3.07;1.80;;;9.20;99.90;;;;;;5068017;28;21829;-82
2023/10/05 05:07:09;;;;;;;23.30;2.73;;;9.20;99.90;;;;;;5067237;28;20621;-80
2023/10/05 05:09:38;;;;;;;6.60;2.67;;;9.30;99.90;;;;;;5068674;28;20717;-84
2023/10/05 05:12:09;;;;;;;1.70;1.60;;;9.50;99.90;;;;;;5068845;28;20631;-84
2023/10/05 05:14:41;;;;;;;2.80;2.47;;;9.50;99.90;;;;;;5068508;28;21000;-84
2023/10/05 05:17:10;;;;;;;2.07;1.87;;;9.50;99.90;;;;;;5069775;28;21007;-84
2023/10/05 05:19:40;;;;;;;3.37;2.23;;;9.60;99.90;;;;;;5069811;28;20626;-85
2023/10/05 05:22:09;;;;;;;2.20;1.50;;;9.60;99.90;;;;;;5069471;28;20622;-83
2023/10/05 05:24:37;;;;;;;3.80;2.27;;;9.50;99.90;;;;;;5069190;28;21294;-84
2023/10/05 05:27:11;;;;;;;5.95;2.75;;;9.50;99.90;;;;;;5068557;28;21260;-87
2023/10/05 05:29:38;;;;;;;3.53;2.33;;;9.60;99.90;;;;;;5069877;28;20218;-87
2023/10/05 05:32:09;;;;;;;2.63;2.42;;;9.50;99.90;;;;;;5068290;28;21309;-85
2023/10/05 05:34:37;;;;;;;2.40;2.07;;;9.50;99.90;;;;;;5069982;28;20649;-86
2023/10/05 05:37:04;;;;;;;3.43;1.93;;;9.60;99.90;;;;;;5068584;28;20625;-87
2023/10/05 05:39:39;;;;;;;2.93;2.40;;;9.60;99.90;;;;;;5068117;28;20833;-87
2023/10/05 05:42:07;;;;;;;1.80;1.70;;;9.60;99.90;;;;;;5069165;28;20629;-87
2023/10/05 05:44:35;;;;;;;2.10;1.60;;;9.70;99.90;;;;;;5069029;28;20628;-86
2023/10/05 05:47:08;;;;;;;2.13;1.93;;;9.60;99.90;;;;;;5068445;28;20669;-87
2023/10/05 05:49:36;;;;;;;1.80;1.53;;;9.60;99.90;;;;;;5069172;28;21111;-86
2023/10/05 05:52:05;;;;;;;19.03;2.60;;;9.60;99.90;;;;;;5068252;28;20634;-87
2023/10/05 05:54:33;;;;;;;2.30;2.00;;;9.50;99.90;;;;;;5069113;28;21565;-87
2023/10/05 05:57:00;;;;;;;2.70;2.00;;;9.60;99.90;;;;;;5069066;28;21319;-87
2023/10/05 05:59:27;;;;;;;5.17;2.27;;;9.60;99.90;;;;;;5069044;28;20613;-82
2023/10/05 06:02:11;;;;;;;3.50;1.93;;;9.50;99.90;;;;;;5068217;28;20668;-83
2023/10/05 06:04:40;;;;;;;3.47;2.20;;;9.60;99.90;;;;;;5065083;28;21092;-84
2023/10/05 06:07:11;;;;;;;1.40;1.30;;;9.60;99.90;;;;;;5067158;28;20656;-83
2023/10/05 06:09:42;;;;;;;3.60;2.83;;;9.70;99.90;;;;;;5068152;28;21297;-83
2023/10/05 06:12:10;;;;;;;2.03;1.53;;;9.70;99.90;;;;;;5068934;28;21333;-83
2023/10/05 06:14:37;;;;;;;3.27;2.53;;;9.70;99.90;;;;;;5068756;28;21128;-83
2023/10/05 06:17:04;;;;;;;3.17;2.37;;;9.80;99.90;;;;;;5069100;28;20629;-83
2023/10/05 06:19:31;;;;;;;2.20;2.00;;;9.80;99.90;;;;;;5069616;28;20737;-84
2023/10/05 06:21:58;;;;;;;4.40;2.37;;;9.80;99.90;;;;;;5068559;28;20779;-83
2023/10/05 06:24:25;;;;;;;4.67;2.83;;;10.00;99.90;;;;;;5068093;28;20617;-83
2023/10/05 06:26:54;;;;;;;2.97;2.10;;;10.10;99.90;;;;;;5068740;28;20616;-84
2023/10/05 06:29:20;;;;;;;5.53;2.70;;;10.20;99.90;;;;;;5068618;28;20640;-83
2023/10/05 06:31:47;;;;;;;2.57;1.90;;;10.10;99.90;;;;;;5069092;28;20627;-84
2023/10/05 06:34:14;;;;;;;2.73;2.30;;;10.20;99.90;;;;;;5069204;28;20966;-83
2023/10/05 06:36:42;;;;;;;2.00;1.90;;;10.30;99.90;;;;;;5068045;28;20630;-83
2023/10/05 06:39:12;;;;;;;2.40;2.20;;;10.20;99.90;;;;;;5068596;28;20618;-82
2023/10/05 06:41:39;;;;;;;2.20;1.93;;;10.20;99.90;;;;;;5068450;28;20634;-82
2023/10/05 06:44:10;;;;;;;5.97;2.20;;;10.20;99.90;;;;;;5068287;28;20736;-81
2023/10/05 06:46:38;;;;;;;5.33;2.43;;;10.10;99.90;;;;;;5068243;28;20655;-82
2023/10/05 06:49:06;;;;;;;2.70;2.00;;;10.10;99.90;;;;;;5068586;28;20641;-82
2023/10/05 06:51:33;;;;;;;4.03;2.80;;;10.10;99.90;;;;;;5067745;28;20662;-83
2023/10/05 06:54:00;;;;;;;2.27;2.07;;;10.30;99.90;;;;;;5067869;28;20713;-82
2023/10/05 06:56:27;;;;;;;2.33;2.13;;;10.40;99.90;;;;;;5068674;28;20638;-83
2023/10/05 06:58:55;;;;;;;1.70;1.60;;;10.60;99.90;;;;;;5068148;28;20621;-84
2023/10/05 07:01:23;;;;;;;2.40;2.17;;;10.60;99.90;;;;;;5068522;28;20632;-83
2023/10/05 07:03:52;;;;;;;3.07;2.10;;;10.60;99.90;;;;;;5067694;28;20614;-82
2023/10/05 07:06:22;;;;;;;2.83;2.57;;;10.70;99.90;;;;;;5067363;28;20624;-82
2023/10/05 07:08:49;;;;;;;3.27;2.80;;;10.70;99.90;;;;;;5067356;28;20656;-82
2023/10/05 07:11:16;;;;;;;1.80;1.70;;;10.80;99.90;;;;;;5067975;28;20772;-84
2023/10/05 07:13:43;;;;;;;2.97;2.67;;;10.80;99.90;;;;;;5067790;28;20707;-83
2023/10/05 07:16:10;;;;;;;4.50;2.83;;;10.80;99.90;;;;;;5067900;28;20622;-83
2023/10/05 07:18:39;;;;;;;3.87;2.80;;;10.80;99.90;;;;;;5068077;28;20628;-83
2023/10/05 07:21:08;;;;;;;2.40;2.17;;;10.90;99.90;;;;;;5067363;28;21015;-83
2023/10/05 07:23:36;;;;;;;2.17;1.97;;;11.00;99.90;;;;;;5067172;28;20622;-84
2023/10/05 07:26:04;;;;;;;3.10;2.80;;;11.10;99.90;;;;;;5067194;28;20622;-83
2023/10/05 07:28:30;;;;;;;3.40;2.37;;;11.20;99.90;;;;;;5067621;28;20617;-83
2023/10/05 07:30:59;;;;;;;2.47;2.27;;;11.30;99.90;;;;;;5066706;28;20903;-82
2023/10/05 07:33:26;;;;;;;3.70;2.00;;;11.40;99.90;;;;;;5067923;28;21270;-83
2023/10/05 07:35:54;;;;;;;2.83;2.37;;;11.40;99.90;;;;;;5066716;28;20649;-83
2023/10/05 07:38:26;;;;;;;2.90;2.60;;;11.50;99.90;;;;;;5067283;28;21793;-82
2023/10/05 07:40:52;;;;;;;2.97;2.30;;;11.60;99.90;;;;;;5067697;28;20728;-82
2023/10/05 07:43:18;;;;;;;5.60;3.30;;;11.70;99.90;;;;;;5068068;28;20628;-83
2023/10/05 07:45:45;;;;;;;3.30;2.20;;;11.80;99.90;;;;;;5066874;28;20203;-83
2023/10/05 07:48:12;;;;;;;6.50;2.70;;;11.90;99.90;;;;;;5067086;28;20732;-82
2023/10/05 07:50:39;;;;;;;5.93;2.80;;;12.00;99.90;;;;;;5067435;28;20658;-83
2023/10/05 07:53:09;;;;;;;3.00;2.50;;;12.10;99.90;;;;;;5067838;28;20633;-82
2023/10/05 07:55:36;;;;;;;2.37;1.87;;;12.20;99.90;;;;;;5067303;28;20614;-83
2023/10/05 07:58:05;;;;;;;3.20;2.83;;;12.40;99.90;;;;;;5067269;28;20625;-83
2023/10/05 08:00:32;;;;;;;2.90;2.33;;;12.40;99.90;;;;;;5067295;28;20633;-83
2023/10/05 08:02:59;;;;;;;3.30;2.87;;;12.50;99.90;;;;;;5067740;28;21183;-83
2023/10/05 08:05:26;;;;;;;3.03;2.20;;;12.50;99.90;;;;;;5067508;28;20989;-84
2023/10/05 08:07:54;;;;;;;3.83;2.10;;;12.60;99.90;;;;;;5067739;28;20638;-84
2023/10/05 08:10:23;;;;;;;2.77;2.00;;;12.50;99.90;;;;;;5066707;28;20665;-84
2023/10/05 08:12:50;;;;;;;4.20;2.17;;;12.70;99.90;;;;;;5066517;28;20626;-84
2023/10/05 08:15:18;;;;;;;3.73;2.47;;;12.70;99.90;;;;;;5067375;28;20620;-83
2023/10/05 08:17:45;;;;;;;1.97;1.50;;;12.80;99.90;;;;;;5067357;28;20684;-84
2023/10/05 08:20:13;;;;;;;2.47;1.87;;;12.90;99.90;;;;;;5069171;28;20639;-83
2023/10/05 08:22:41;;;;;;;2.70;2.20;;;13.00;99.90;;;;;;5070843;28;20764;-84
2023/10/05 08:25:11;;;;;;;4.03;2.80;;;13.10;99.50;;;;;;5070309;28;20632;-84
2023/10/05 08:27:42;;;;;;;5.83;2.50;;;13.20;98.70;;;;;;5071190;28;20626;-83
2023/10/05 08:30:11;;;;;;;4.60;2.67;;;13.20;99.10;;;;;;5071843;28;20637;-84
2023/10/05 08:32:39;;;;;;;3.90;2.33;;;13.40;99.40;;;;;;5071331;28;20628;-84
2023/10/05 08:35:12;;;;;;;2.70;2.10;;;13.40;98.50;;;;;;5071092;28;20624;-83
2023/10/05 08:37:42;;;;;;;3.83;2.60;;;13.40;98.60;;;;;;5070633;28;20712;-83
2023/10/05 08:40:30;;;;;;;4.90;2.67;;;13.50;98.70;;;;;;5071603;28;20618;-83
2023/10/05 08:43:08;;;;;;;3.23;1.80;;;13.50;98.60;;;;;;5071120;28;20636;-84
2023/10/05 08:45:45;;;;;;;2.07;1.70;;;13.70;98.50;;;;;;5070976;28;20720;-84
2023/10/05 08:48:18;;;;;;;2.93;2.33;;;13.70;97.50;;;;;;5071478;28;20626;-83
2023/10/05 08:50:51;;;;;;;2.00;1.80;;;13.70;98.30;;;;;;5071854;28;20676;-84
2023/10/05 08:53:21;;;;;;;2.90;2.10;;;13.80;98.20;;;;;;5071644;28;20629;-83
2023/10/05 08:55:54;;;;;;;6.23;1.70;;;13.70;96.60;;;;;;5071221;28;20626;-81
2023/10/05 08:58:24;;;;;;;2.23;1.97;;;13.90;97.40;;;;;;5071025;28;20626;-82
2023/10/05 09:00:52;;;;;;;2.23;2.00;;;14.00;97.80;;;;;;5070411;28;20667;-83
2023/10/05 09:03:30;;;;;;;3.50;2.37;;;14.20;97.10;;;;;;5070170;28;21268;-84
2023/10/05 09:06:13;;;;;;;3.50;1.90;;;14.30;96.60;;;;;;5069803;28;20628;-83
2023/10/05 09:08:53;;;;;;;6.87;2.63;;;14.30;96.20;;;;;;5070762;28;20636;-84
2023/10/05 09:11:31;;;;;;;4.90;2.23;;;14.30;95.70;;;;;;5070340;28;20671;-84
2023/10/05 09:14:08;;;;;;;2.80;1.70;;;14.50;96.60;;;;;;5069883;28;20753;-84
2023/10/05 09:16:41;;;;;;;3.03;1.70;;;14.60;96.10;;;;;;5069457;28;20641;-84
2023/10/05 09:19:08;;;;;;;3.13;1.90;;;14.60;95.50;;;;;;5071126;28;20623;-84
2023/10/05 09:21:55;;;;;;;2.83;2.20;;;14.70;95.70;;;;;;5070065;28;20660;-83
2023/10/05 09:24:22;;;;;;;3.97;2.53;;;14.60;94.90;;;;;;5070738;28;20723;-83
2023/10/05 09:26:56;;;;;;;7.27;2.77;;;14.50;94.30;;;;;;5069018;28;20755;-84
2023/10/05 09:29:28;;;;;;;5.03;2.67;;;14.60;95.20;;;;;;5070759;28;20732;-84
2023/10/05 09:31:55;;;;;;;3.80;3.03;;;14.70;94.80;;;;;;5068533;28;20702;-84
2023/10/05 09:34:39;;;;;;;5.47;2.50;;;14.80;94.70;;;;;;5070134;28;20764;-84
2023/10/05 09:37:07;;;;;;;5.60;2.40;;;14.90;94.40;;;;;;5069017;28;21854;-82
2023/10/05 09:39:42;;;;;;;5.17;2.33;;;14.80;93.80;;;;;;5069997;28;20622;-84
2023/10/05 09:42:13;;;;;;;3.70;2.23;;;14.90;94.60;;;;;;5069534;28;20694;-83
2023/10/05 09:44:46;;;;;;;3.97;2.50;;;14.90;94.50;;;;;;5070155;28;21250;-83
2023/10/05 09:47:15;;;;;;;6.87;2.80;;;14.90;94.80;;;;;;5068794;28;21276;-84
2023/10/05 09:49:45;;;;;;;4.50;2.27;;;15.10;94.70;;;;;;5069749;28;20648;-83
2023/10/05 09:52:13;;;;;;;4.93;2.30;;;15.20;94.50;;;;;;5069289;28;20680;-84
2023/10/05 09:54:43;;;;;;;3.20;2.50;;;15.20;92.80;;;;;;5069213;28;20621;-83
2023/10/05 09:57:11;;;;;;;3.40;2.10;;;15.30;93.10;;;;;;5069388;28;20629;-83
2023/10/05 09:59:41;;;;;;;3.63;2.53;;;15.10;92.80;;;;;;5069778;28;21104;-84
2023/10/05 10:02:14;;;;;;;2.83;1.97;;;15.20;92.90;;;;;;5069423;28;20632;-83
2023/10/05 10:04:42;;;;;;;2.83;1.97;;;15.20;92.50;;;;;;5069100;28;20626;-84
2023/10/05 10:07:15;;;;;;;2.27;1.90;;;15.30;92.50;;;;;;5067391;28;20630;-83
2023/10/05 10:09:46;;;;;;;3.97;3.37;;;15.50;92.80;;;;;;5070330;28;20641;-84
2023/10/05 10:12:25;;;;;;;3.40;1.90;;;15.50;92.30;;;;;;5069762;28;20676;-83
2023/10/05 10:14:53;;;;;;;4.87;2.40;;;15.40;91.30;;;;;;5068896;28;21223;-83
2023/10/05 10:17:27;;;;;;;3.70;1.83;;;15.30;92.20;;;;;;5068620;28;20920;-84
2023/10/05 10:20:07;;;;;;;4.13;2.07;;;15.40;92.30;;;;;;5069396;28;22183;-84
2023/10/05 10:22:55;;;;;;;5.97;1.87;;;15.40;91.40;;;;;;5069173;28;21499;-84
2023/10/05 10:25:29;;;;;;;3.60;2.00;;;15.30;91.40;;;;;;5069014;28;20772;-83
2023/10/05 10:28:14;;;;;;;4.40;2.20;;;15.50;91.30;;;;;;5067962;28;20692;-83
2023/10/05 10:30:46;;;;;;;4.30;2.50;;;15.60;90.70;;;;;;5068613;28;20646;-84
2023/10/05 10:33:27;;;;;;;2.57;1.67;;;15.70;92.00;;;;;;5068882;28;20631;-84
2023/10/05 10:35:56;;;;;;;3.40;2.23;;;15.70;91.30;;;;;;5068574;28;20976;-83
2023/10/05 10:38:24;;;;;;;3.50;2.07;;;15.80;91.10;;;;;;5069170;28;21236;-84
2023/10/05 10:41:09;;;;;;;5.23;2.27;;;15.90;91.00;;;;;;5068168;28;20623;-84
2023/10/05 10:43:37;;;;;;;3.00;2.20;;;15.90;90.20;;;;;;5066642;28;20727;-83
2023/10/05 10:46:13;;;;;;;5.50;2.70;;;16.00;90.50;;;;;;5068026;28;20623;-83
2023/10/05 10:49:00;;;;;;;2.43;1.70;;;16.10;90.40;;;;;;5068033;28;20630;-83
2023/10/05 10:51:31;;;;;;;3.97;2.80;;;16.00;89.00;;;;;;5066034;28;21207;-79
2023/10/05 10:54:08;;;;;;;3.20;1.60;;;16.00;90.00;;;;;;5068351;28;20630;-79
2023/10/05 10:56:41;;;;;;;5.33;2.10;;;16.00;91.20;;;;;;5067430;28;21178;-80
2023/10/05 10:59:11;;;;;;;3.43;2.50;;;16.10;90.80;;;;;;5067643;28;20632;-78
2023/10/05 11:01:42;;;;;;;3.37;2.40;;;16.20;89.60;;;;;;5066494;28;20628;-79
2023/10/05 11:04:25;;;;;;;5.53;2.50;;;16.40;90.90;;;;;;5057307;28;20664;-78
2023/10/05 11:06:56;;;;;;;6.03;2.90;;;16.60;90.30;;;;;;5066321;28;20643;-79
2023/10/05 11:09:30;;;;;;;3.30;2.73;;;16.70;91.60;;;;;;5066721;28;21239;-79
2023/10/05 11:12:08;;;;;;;2.63;1.90;;;16.70;91.50;;;;;;5067469;28;20957;-79
2023/10/05 11:14:36;;;;;;;2.93;1.97;;;16.50;90.50;;;;;;5067270;28;20628;-79
2023/10/05 11:17:11;;;;;;;5.03;2.90;;;16.60;90.80;;;;;;5065951;28;20679;-78
2023/10/05 11:19:40;;;;;;;8.30;3.10;;;16.60;91.30;;;;;;5067490;28;20628;-78
2023/10/05 11:22:11;;;;;;;6.23;2.67;;;16.60;91.70;;;;;;5066686;28;20648;-78
2023/10/05 11:25:14;;;;;;;2.30;1.70;;;16.60;90.70;;;;;;5067367;28;20630;-79
2023/10/05 11:27:48;;;;;;;2.80;2.10;;;16.60;90.80;;;;;;5062779;28;20633;-78
2023/10/05 11:30:18;;;;;;;4.40;2.23;;;16.50;90.50;;;;;;5066372;28;20690;-78
2023/10/05 11:32:46;;;;;;;4.40;2.27;;;16.60;90.10;;;;;;5066641;28;21856;-78
2023/10/05 11:35:15;;;;;;;4.30;2.73;;;16.50;89.10;;;;;;5066747;28;20639;-77
2023/10/05 11:37:45;;;;;;;4.27;2.10;;;16.60;90.50;;;;;;5065543;28;21220;-78
2023/10/05 11:40:23;;;;;;;3.13;1.60;;;16.70;90.30;;;;;;5067168;28;20609;-77
2023/10/05 11:42:51;;;;;;;1.90;1.73;;;16.70;90.70;;;;;;5066206;28;20767;-77
2023/10/05 11:45:19;;;;;;;9.60;2.30;;;16.80;90.10;;;;;;5066503;28;20633;-77
2023/10/05 11:47:52;;;;;;;5.63;1.90;;;16.70;89.60;;;;;;5066087;28;20625;-79
2023/10/05 11:50:25;;;;;;;4.47;1.97;;;16.70;90.70;;;;;;5066741;28;20640;-78
2023/10/05 11:52:53;;;;;;;6.43;1.97;;;16.70;89.30;;;;;;5066444;28;21012;-78
2023/10/05 11:55:20;;;;;;;4.63;2.33;;;16.80;89.00;;;;;;5066646;28;20636;-78
2023/10/05 11:57:47;;;;;;;4.30;2.00;;;16.70;86.90;;;;;;5065775;28;20633;-79
2023/10/05 12:00:16;;;;;;;3.13;2.20;;;16.50;88.70;;;;;;5065922;28;20614;-78
2023/10/05 12:02:44;;;;;;;3.03;2.27;;;16.30;86.10;;;;;;5065604;28;21172;-78
2023/10/05 12:05:11;;;;;;;3.87;2.20;;;16.40;87.70;;;;;;5065937;28;20627;-78
2023/10/05 12:07:41;;;;;;;2.77;1.90;;;16.60;90.10;;;;;;5065390;28;20636;-78
2023/10/05 12:10:10;;;;;;;3.10;1.63;;;16.70;89.10;;;;;;5065766;28;20635;-78
2023/10/05 12:12:41;;;;;;;2.43;1.67;;;16.80;89.50;;;;;;5065963;28;20670;-78
2023/10/05 12:15:13;;;;;;;2.07;1.87;;;16.90;90.00;;;;;;5066973;28;21045;-78
2023/10/05 12:17:40;;;;;;;4.27;1.90;;;16.80;90.20;;;;;;5064944;28;20900;-78
2023/10/05 12:20:12;;;;;;;4.47;2.60;;;16.80;89.80;;;;;;5065413;28;20629;-76
2023/10/05 12:22:41;;;;;;;3.17;1.67;;;16.70;88.40;;;;;;5063910;28;20625;-75
2023/10/05 12:25:08;;;;;;;4.10;2.50;;;16.80;89.20;;;;;;5065588;28;21197;-75
2023/10/05 12:27:36;;;;;;;2.37;2.17;;;16.90;88.60;;;;;;5062928;28;20712;-77
2023/10/05 12:30:10;;;;;;;2.27;1.93;;;17.00;90.20;;;;;;5061661;28;20626;-75
2023/10/05 12:32:38;;;;;;;6.10;2.27;;;16.90;89.20;;;;;;5064646;28;20669;-76
2023/10/05 12:35:13;;;;;;;3.93;2.30;;;17.10;89.90;;;;;;5064365;28;21193;-76
2023/10/05 12:37:41;;;;;;;2.33;1.37;;;17.00;87.80;;;;;;5062747;28;21268;-77
2023/10/05 12:40:18;;;;;;;3.40;1.97;;;16.80;89.40;;;;;;5065883;28;20627;-76
2023/10/05 12:42:51;;;;;;;1.87;1.50;;;16.80;88.30;;;;;;5066212;28;20625;-76
2023/10/05 12:45:20;;;;;;;4.60;1.87;;;16.60;88.10;;;;;;5065609;28;20625;-76
2023/10/05 12:47:48;;;;;;;2.60;2.00;;;16.50;88.90;;;;;;5064510;28;20630;-76
2023/10/05 12:50:15;;;;;;;4.10;2.00;;;16.50;90.10;;;;;;5064579;28;20623;-77
2023/10/05 12:52:43;;;;;;;2.00;1.77;;;16.50;88.00;;;;;;5065008;28;20669;-77
2023/10/05 12:55:10;;;;;;;3.43;1.90;;;16.60;88.00;;;;;;5063817;28;21227;-76
2023/10/05 12:57:38;;;;;;;3.00;1.90;;;16.50;86.90;;;;;;5064974;28;20621;-77
2023/10/05 13:00:19;;;;;;;2.60;1.70;;;16.40;87.80;;;;;;5063769;28;20624;-76
2023/10/05 13:02:51;;;;;;;4.67;2.67;;;16.20;86.30;;;;;;5061754;28;20637;-76
2023/10/05 13:05:19;;;;;;;1.20;1.10;;;16.20;87.60;;;;;;5061308;28;21619;-77
2023/10/05 13:07:47;;;;;;;4.07;2.20;;;16.30;89.30;;;;;;5068320;28;20736;-77
2023/10/05 13:10:21;;;;;;;4.13;1.83;;;16.20;89.70;;;;;;5069934;28;20631;-77
2023/10/05 13:12:49;;;;;;;2.50;1.33;;;16.20;89.60;;;;;;5069272;28;20683;-77